createdAt,value
2022-12-18T00:02:16.995Z,-6.60
2022-12-18T00:04:44.034Z,-6.70
2022-12-18T00:07:10.988Z,-6.60
2022-12-18T00:09:40.261Z,-6.60
2022-12-18T00:14:43.358Z,-6.70
2022-12-18T00:17:10.328Z,-6.50
2022-12-18T00:19:37.182Z,-6.50
2022-12-18T00:22:04.116Z,-6.60
2022-12-18T00:24:31.007Z,-6.70
2022-12-18T00:26:57.858Z,-6.80
2022-12-18T00:29:24.983Z,-6.80
2022-12-18T00:31:51.905Z,-6.90
2022-12-18T00:34:18.838Z,-6.90
2022-12-18T00:36:48.316Z,-6.90
2022-12-18T00:39:15.180Z,-6.90
2022-12-18T00:42:00.617Z,-6.80
2022-12-18T00:44:27.454Z,-6.80
2022-12-18T00:46:54.306Z,-6.80
2022-12-18T00:49:21.976Z,-6.80
2022-12-18T00:51:49.782Z,-6.90
2022-12-18T00:54:17.823Z,-6.90
2022-12-18T00:56:49.429Z,-6.80
2022-12-18T00:59:17.758Z,-6.80
2022-12-18T01:01:45.028Z,-6.70
2022-12-18T01:04:11.992Z,-6.60
2022-12-18T01:06:38.839Z,-6.50
2022-12-18T01:09:07.442Z,-6.80
2022-12-18T01:11:34.370Z,-7.00
2022-12-18T01:14:01.712Z,-6.90
2022-12-18T01:16:28.655Z,-6.90
2022-12-18T01:18:55.929Z,-7.00
2022-12-18T01:21:24.174Z,-6.90
2022-12-18T01:23:56.131Z,-7.00
2022-12-18T01:26:23.462Z,-7.00
2022-12-18T01:28:50.476Z,-7.00
2022-12-18T01:31:19.698Z,-7.00
2022-12-18T01:33:52.157Z,-7.00
2022-12-18T01:36:28.659Z,-7.00
2022-12-18T01:38:56.325Z,-7.00
2022-12-18T01:41:26.214Z,-6.90
2022-12-18T01:43:54.849Z,-7.10
2022-12-18T01:46:23.563Z,-7.00
2022-12-18T01:48:57.472Z,-7.00
2022-12-18T01:51:26.721Z,-6.90
2022-12-18T01:53:53.574Z,-6.90
2022-12-18T01:56:22.144Z,-6.90
2022-12-18T01:59:03.764Z,-6.90
2022-12-18T02:01:33.000Z,-6.90
2022-12-18T02:04:32.267Z,-6.90
2022-12-18T02:07:08.218Z,-7.00
2022-12-18T02:09:42.612Z,-6.90
2022-12-18T02:12:20.551Z,-6.90
2022-12-18T02:15:10.871Z,-6.80
2022-12-18T02:18:01.335Z,-6.80
2022-12-18T02:20:36.164Z,-6.90
2022-12-18T02:23:29.655Z,-6.80
2022-12-18T02:26:08.579Z,-6.80
2022-12-18T02:28:42.565Z,-6.70
2022-12-18T02:31:14.973Z,-6.70
2022-12-18T02:33:43.329Z,-6.70
2022-12-18T02:36:11.953Z,-6.70
2022-12-18T02:38:39.973Z,-6.70
2022-12-18T02:41:07.603Z,-6.60
2022-12-18T02:43:34.516Z,-6.60
2022-12-18T02:46:22.896Z,-6.60
2022-12-18T02:48:51.614Z,-6.60
2022-12-18T02:51:23.898Z,-6.60
2022-12-18T02:54:01.404Z,-6.60
2022-12-18T02:56:50.340Z,-6.60
2022-12-18T02:59:29.711Z,-6.60
2022-12-18T03:02:04.391Z,-6.60
2022-12-18T03:04:42.472Z,-6.60
2022-12-18T03:07:16.477Z,-6.60
2022-12-18T03:09:47.638Z,-6.60
2022-12-18T03:12:28.806Z,-6.60
2022-12-18T03:15:18.175Z,-6.50
2022-12-18T03:17:52.175Z,-6.50
2022-12-18T03:20:22.765Z,-6.50
2022-12-18T03:23:00.892Z,-6.60
2022-12-18T03:25:29.148Z,-6.60
2022-12-18T03:27:59.849Z,-6.50
2022-12-18T03:30:29.629Z,-6.50
2022-12-18T03:33:10.150Z,-6.40
2022-12-18T03:35:40.873Z,-6.40
2022-12-18T03:38:08.802Z,-6.00
2022-12-18T03:40:44.274Z,-6.40
2022-12-18T03:43:21.500Z,-6.30
2022-12-18T03:45:55.371Z,-6.20
2022-12-18T03:48:33.830Z,-6.20
2022-12-18T03:51:09.064Z,-6.20
2022-12-18T03:53:50.978Z,-6.20
2022-12-18T03:56:19.985Z,-6.20
2022-12-18T03:58:49.003Z,-6.20
2022-12-18T04:01:18.484Z,-6.10
2022-12-18T04:03:49.272Z,-5.70
2022-12-18T04:06:17.435Z,-6.10
2022-12-18T04:08:45.227Z,-6.00
2022-12-18T04:11:12.596Z,-5.80
2022-12-18T04:13:40.186Z,-6.00
2022-12-18T04:16:07.545Z,-6.00
2022-12-18T04:18:35.207Z,-6.00
2022-12-18T04:21:02.299Z,-5.80
2022-12-18T04:23:29.421Z,-5.80
2022-12-18T04:25:56.351Z,-5.80
2022-12-18T04:28:23.206Z,-5.70
2022-12-18T04:30:50.214Z,-5.70
2022-12-18T04:33:17.231Z,-5.60
2022-12-18T04:35:44.491Z,-5.70
2022-12-18T04:38:11.502Z,-5.70
2022-12-18T04:40:39.285Z,-5.70
2022-12-18T04:43:08.170Z,-5.60
2022-12-18T04:45:35.268Z,-5.70
2022-12-18T04:48:03.542Z,-5.60
2022-12-18T04:50:31.020Z,-5.70
2022-12-18T04:52:58.134Z,-5.70
2022-12-18T04:55:26.626Z,-5.60
2022-12-18T04:57:54.007Z,-5.70
2022-12-18T05:00:21.860Z,-5.60
2022-12-18T05:02:49.210Z,-5.80
2022-12-18T05:05:16.232Z,-5.80
2022-12-18T05:07:43.085Z,-5.70
2022-12-18T05:10:10.758Z,-5.70
2022-12-18T05:12:57.639Z,-5.70
2022-12-18T05:15:25.111Z,-5.80
2022-12-18T05:17:51.966Z,-5.70
2022-12-18T05:20:19.317Z,-5.70
2022-12-18T05:22:46.276Z,-5.80
2022-12-18T05:25:13.196Z,-5.70
2022-12-18T05:27:40.104Z,-5.70
2022-12-18T05:30:07.614Z,-5.70
2022-12-18T05:32:34.488Z,-5.80
2022-12-18T05:35:01.358Z,-5.80
2022-12-18T05:37:28.319Z,-5.80
2022-12-18T05:39:55.499Z,-4.60
2022-12-18T05:42:22.373Z,-5.80
2022-12-18T05:44:49.313Z,-5.70
2022-12-18T05:47:16.169Z,-5.60
2022-12-18T05:49:43.143Z,-5.70
2022-12-18T05:52:10.659Z,-5.70
2022-12-18T05:54:37.514Z,-5.80
2022-12-18T05:57:04.423Z,-5.70
2022-12-18T05:59:31.395Z,-5.80
2022-12-18T06:01:58.304Z,-5.80
2022-12-18T06:04:27.325Z,-5.80
2022-12-18T06:06:54.207Z,-5.90
2022-12-18T06:09:21.263Z,-5.70
2022-12-18T06:11:48.065Z,-5.70
2022-12-18T06:14:15.357Z,-5.70
2022-12-18T06:16:42.219Z,-5.70
2022-12-18T06:19:09.083Z,-5.80
2022-12-18T06:21:36.184Z,-5.80
2022-12-18T06:24:03.249Z,-5.80
2022-12-18T06:26:30.106Z,-5.80
2022-12-18T06:28:57.337Z,-5.70
2022-12-18T06:31:25.171Z,-5.70
2022-12-18T06:33:52.549Z,-5.70
2022-12-18T06:36:19.516Z,-5.50
2022-12-18T06:38:46.433Z,-5.70
2022-12-18T06:41:22.164Z,-5.70
2022-12-18T06:43:49.128Z,-5.60
2022-12-18T06:46:16.014Z,-5.60
2022-12-18T06:48:42.995Z,-5.40
2022-12-18T06:51:09.900Z,-5.40
2022-12-18T06:53:36.976Z,-5.40
2022-12-18T06:56:10.635Z,-5.50
2022-12-18T06:58:39.218Z,-5.30
2022-12-18T07:01:09.129Z,-5.00
2022-12-18T07:03:36.268Z,-5.40
2022-12-18T07:06:03.377Z,-5.10
2022-12-18T07:08:31.342Z,-5.20
2022-12-18T07:10:58.382Z,-5.30
2022-12-18T07:13:25.470Z,-5.40
2022-12-18T07:15:52.677Z,-5.30
2022-12-18T07:18:19.519Z,-5.30
2022-12-18T07:20:46.394Z,-5.30
2022-12-18T07:23:15.068Z,-5.30
2022-12-18T07:25:41.998Z,-5.20
2022-12-18T07:28:12.789Z,-5.20
2022-12-18T07:30:42.602Z,-5.20
2022-12-18T07:33:09.564Z,-5.20
2022-12-18T07:35:36.557Z,-5.20
2022-12-18T07:38:03.458Z,-5.10
2022-12-18T07:40:30.322Z,-5.20
2022-12-18T07:42:57.253Z,-5.10
2022-12-18T07:45:24.156Z,-5.00
2022-12-18T07:47:51.002Z,-5.10
2022-12-18T07:50:17.873Z,-5.10
2022-12-18T07:52:44.749Z,-5.10
2022-12-18T07:55:11.627Z,-5.00
2022-12-18T07:57:57.766Z,-4.90
2022-12-18T08:00:25.454Z,-5.00
2022-12-18T08:02:52.525Z,-5.00
2022-12-18T08:05:19.841Z,-4.90
2022-12-18T08:07:46.791Z,-4.80
2022-12-18T08:10:14.361Z,-4.80
2022-12-18T08:12:41.282Z,-4.80
2022-12-18T08:15:08.696Z,-4.80
2022-12-18T08:17:35.614Z,-4.60
2022-12-18T08:20:02.596Z,-4.60
2022-12-18T08:22:29.578Z,-4.70
2022-12-18T08:24:56.416Z,-4.60
2022-12-18T08:27:30.640Z,-4.70
2022-12-18T08:29:58.455Z,-4.80
2022-12-18T08:32:26.986Z,-4.70
2022-12-18T08:34:53.885Z,-4.70
2022-12-18T08:37:21.058Z,-4.70
2022-12-18T08:39:48.052Z,-4.70
2022-12-18T08:42:33.565Z,-4.60
2022-12-18T08:45:00.632Z,-4.70
2022-12-18T08:47:27.584Z,-4.50
2022-12-18T08:49:54.483Z,-4.60
2022-12-18T08:52:21.338Z,-4.40
2022-12-18T08:54:48.179Z,-4.30
2022-12-18T08:57:15.047Z,-4.50
2022-12-18T08:59:41.884Z,-4.50
2022-12-18T09:02:12.068Z,-4.50
2022-12-18T09:04:40.957Z,-4.50
2022-12-18T09:07:07.888Z,-4.40
2022-12-18T09:09:34.770Z,-4.40
2022-12-18T09:12:01.685Z,-4.40
2022-12-18T09:14:28.532Z,-4.40
2022-12-18T09:16:55.942Z,-4.50
2022-12-18T09:19:23.117Z,-4.50
2022-12-18T09:21:49.974Z,-4.50
2022-12-18T09:24:17.317Z,-4.40
2022-12-18T09:26:46.823Z,-4.40
2022-12-18T09:29:15.577Z,-4.50
2022-12-18T09:31:43.381Z,-4.50
2022-12-18T09:34:10.576Z,-4.60
2022-12-18T09:36:37.469Z,-4.50
2022-12-18T09:39:08.105Z,-4.60
2022-12-18T09:41:51.855Z,-4.60
2022-12-18T09:44:28.131Z,-4.50
2022-12-18T09:47:07.317Z,-4.50
2022-12-18T09:49:40.487Z,-4.50
2022-12-18T09:52:13.385Z,-4.70
2022-12-18T09:54:41.108Z,-4.60
2022-12-18T09:57:11.806Z,-4.60
2022-12-18T09:59:40.920Z,-4.50
2022-12-18T10:02:23.904Z,-4.70
2022-12-18T10:05:11.605Z,-4.60
2022-12-18T10:08:00.588Z,-4.50
2022-12-18T10:10:36.868Z,-4.50
2022-12-18T10:13:08.876Z,-4.60
2022-12-18T10:16:03.697Z,-4.50
2022-12-18T10:18:46.770Z,-4.50
2022-12-18T10:21:20.275Z,-4.40
2022-12-18T10:24:02.691Z,-4.30
2022-12-18T10:26:29.597Z,-4.30
2022-12-18T10:29:05.167Z,-4.40
2022-12-18T10:31:32.642Z,-4.40
2022-12-18T10:33:59.557Z,-4.40
2022-12-18T10:36:26.581Z,-4.40
2022-12-18T10:38:53.929Z,-4.40
2022-12-18T10:41:23.099Z,-4.30
2022-12-18T10:44:09.922Z,-4.40
2022-12-18T10:46:37.275Z,-4.50
2022-12-18T10:49:05.900Z,-4.50
2022-12-18T10:51:38.474Z,-4.50
2022-12-18T10:54:26.198Z,-4.40
2022-12-18T10:57:13.028Z,-4.40
2022-12-18T10:59:55.834Z,-4.50
2022-12-18T11:02:41.021Z,-4.60
2022-12-18T11:05:34.488Z,-4.60
2022-12-18T11:08:02.038Z,-4.50
2022-12-18T11:10:34.575Z,-4.50
2022-12-18T11:13:11.772Z,-4.50
2022-12-18T11:15:42.251Z,-4.50
2022-12-18T11:18:20.343Z,-4.60
2022-12-18T11:21:06.381Z,-4.80
2022-12-18T11:23:33.378Z,-4.70
2022-12-18T11:26:03.606Z,-4.70
2022-12-18T11:28:44.872Z,-4.70
2022-12-18T11:31:28.599Z,-4.60
2022-12-18T11:34:26.826Z,-4.90
2022-12-18T11:36:49.534Z,-5.00
2022-12-18T11:39:42.253Z,-5.00
2022-12-18T11:42:12.445Z,-5.10
2022-12-18T11:44:52.271Z,-5.40
2022-12-18T11:47:43.916Z,-5.20
2022-12-18T11:50:45.436Z,-5.10
2022-12-18T11:53:13.488Z,-5.30
2022-12-18T11:56:03.004Z,-5.30
2022-12-18T11:58:43.183Z,-5.40
2022-12-18T12:01:17.663Z,-5.40
2022-12-18T12:04:13.439Z,-5.30
2022-12-18T12:07:04.611Z,-5.60
2022-12-18T12:10:03.513Z,-5.60
2022-12-18T12:12:49.112Z,-5.40
2022-12-18T12:15:37.359Z,-5.50
2022-12-18T12:18:20.303Z,-5.60
2022-12-18T12:20:59.399Z,-5.60
2022-12-18T12:23:35.295Z,-5.60
2022-12-18T12:26:08.423Z,-5.50
2022-12-18T12:28:44.200Z,-5.50
2022-12-18T12:31:36.021Z,-5.40
2022-12-18T12:34:14.982Z,-5.50
2022-12-18T12:36:54.150Z,-5.50
2022-12-18T12:39:28.296Z,-5.50
2022-12-18T12:42:14.503Z,-5.50
2022-12-18T12:44:52.632Z,-5.50
2022-12-18T12:47:31.607Z,-5.50
2022-12-18T12:50:01.545Z,-5.40
2022-12-18T12:52:30.021Z,-5.60
2022-12-18T12:54:58.372Z,-5.50
2022-12-18T12:57:25.408Z,-5.50
2022-12-18T13:00:12.816Z,-5.40
2022-12-18T13:03:20.147Z,-5.50
2022-12-18T13:05:50.075Z,-5.80
2022-12-18T13:08:31.217Z,-5.90
2022-12-18T13:11:20.802Z,-5.90
2022-12-18T13:13:54.305Z,-5.80
2022-12-18T13:16:26.665Z,-5.80
2022-12-18T13:19:00.002Z,-5.70
2022-12-18T13:21:33.541Z,-5.70
2022-12-18T13:24:36.719Z,-5.70
2022-12-18T13:27:52.544Z,-5.90
2022-12-18T13:30:34.438Z,-5.80
2022-12-18T13:33:19.522Z,-5.70
2022-12-18T13:35:49.157Z,-5.70
2022-12-18T13:38:39.001Z,-5.70
2022-12-18T13:41:24.125Z,-5.80
2022-12-18T13:43:53.873Z,-5.60
2022-12-18T13:46:31.733Z,-5.80
2022-12-18T13:49:01.391Z,-5.90
2022-12-18T13:51:30.837Z,-5.90
2022-12-18T13:54:18.907Z,-5.90
2022-12-18T13:56:47.757Z,-5.80
2022-12-18T13:59:25.737Z,-5.80
2022-12-18T14:02:02.906Z,-5.90
2022-12-18T14:04:35.811Z,-6.00
2022-12-18T14:07:14.977Z,-5.90
2022-12-18T14:09:47.356Z,-5.60
2022-12-18T14:12:44.813Z,-5.60
2022-12-18T14:15:24.816Z,-5.90
2022-12-18T14:17:54.706Z,-5.90
2022-12-18T14:20:21.952Z,-5.90
2022-12-18T14:22:50.124Z,-5.80
2022-12-18T14:25:19.798Z,-5.60
2022-12-18T14:28:11.224Z,-5.60
2022-12-18T14:30:43.496Z,-5.50
2022-12-18T14:33:18.905Z,-5.70
2022-12-18T14:36:04.108Z,-5.40
2022-12-18T14:38:39.324Z,-5.70
2022-12-18T14:41:12.667Z,-5.50
2022-12-18T14:43:42.141Z,-5.60
2022-12-18T14:46:28.030Z,-5.50
2022-12-18T14:48:55.159Z,-5.40
2022-12-18T14:51:27.660Z,-5.20
2022-12-18T14:54:16.009Z,-5.40
2022-12-18T14:56:49.093Z,-5.50
2022-12-18T14:59:24.753Z,-5.70
2022-12-18T15:02:22.792Z,-5.90
2022-12-18T15:05:12.770Z,-6.10
2022-12-18T15:07:54.586Z,-6.10
2022-12-18T15:10:24.437Z,-5.90
2022-12-18T15:12:57.394Z,-5.60
2022-12-18T15:15:39.309Z,-5.50
2022-12-18T15:18:08.980Z,-5.50
2022-12-18T15:20:50.480Z,-5.60
2022-12-18T15:23:21.804Z,-5.70
2022-12-18T15:25:56.513Z,-6.00
2022-12-18T15:28:31.881Z,-6.00
2022-12-18T15:31:13.221Z,-5.80
2022-12-18T15:33:45.184Z,-5.50
2022-12-18T15:36:14.146Z,-5.30
2022-12-18T15:38:41.265Z,-5.30
2022-12-18T15:41:16.846Z,-5.30
2022-12-18T15:43:47.514Z,-5.30
2022-12-18T15:46:20.261Z,-5.30
2022-12-18T15:48:57.975Z,-5.20
2022-12-18T15:51:32.468Z,-5.20
2022-12-18T15:54:01.891Z,-5.20
2022-12-18T15:56:47.793Z,-5.80
2022-12-18T15:59:19.871Z,-5.90
2022-12-18T16:01:49.110Z,-6.10
2022-12-18T16:04:18.668Z,-6.10
2022-12-18T16:07:13.203Z,-5.80
2022-12-18T16:09:32.376Z,-5.90
2022-12-18T16:11:59.701Z,-5.80
2022-12-18T16:14:28.591Z,-5.70
2022-12-18T16:17:00.887Z,-5.70
2022-12-18T16:19:28.660Z,-5.60
2022-12-18T16:21:57.733Z,-5.50
2022-12-18T16:24:30.215Z,-5.40
2022-12-18T16:27:00.205Z,-5.30
2022-12-18T16:29:28.677Z,-5.40
2022-12-18T16:32:00.359Z,-5.30
2022-12-18T16:34:35.435Z,-5.50
2022-12-18T16:37:06.392Z,-5.80
2022-12-18T16:39:35.345Z,-5.80
2022-12-18T16:42:05.963Z,-5.60
2022-12-18T16:44:34.591Z,-6.00
2022-12-18T16:47:03.170Z,-5.70
2022-12-18T16:49:30.689Z,-5.70
2022-12-18T16:51:57.873Z,-5.30
2022-12-18T16:54:25.063Z,-5.80
2022-12-18T16:56:52.474Z,-5.60
2022-12-18T16:59:20.032Z,-5.70
2022-12-18T17:01:47.763Z,-5.80
2022-12-18T17:04:15.328Z,-5.50
2022-12-18T17:06:45.194Z,-5.00
2022-12-18T17:09:18.409Z,-5.60
2022-12-18T17:11:45.351Z,-5.50
2022-12-18T17:14:16.175Z,-5.90
2022-12-18T17:16:43.159Z,-6.30
2022-12-18T17:19:16.641Z,-6.20
2022-12-18T17:21:45.794Z,-6.10
2022-12-18T17:24:12.682Z,-6.00
2022-12-18T17:26:39.814Z,-6.30
2022-12-18T17:29:07.411Z,-6.00
2022-12-18T17:31:35.093Z,-5.80
2022-12-18T17:34:04.344Z,-5.80
2022-12-18T17:36:32.407Z,-6.00
2022-12-18T17:39:01.321Z,-5.90
2022-12-18T17:41:29.118Z,-6.30
2022-12-18T17:44:03.863Z,-6.30
2022-12-18T17:46:33.038Z,-6.20
2022-12-18T17:49:02.540Z,-6.20
2022-12-18T17:51:30.192Z,-6.50
2022-12-18T17:53:57.284Z,-6.50
2022-12-18T17:56:25.035Z,-6.40
2022-12-18T17:58:52.610Z,-6.40
2022-12-18T18:01:23.202Z,-6.30
2022-12-18T18:03:52.968Z,-6.30
2022-12-18T18:06:21.019Z,-6.50
2022-12-18T18:08:48.460Z,-6.90
2022-12-18T18:11:36.900Z,-7.00
2022-12-18T18:14:07.013Z,-7.00
2022-12-18T18:16:43.949Z,-6.50
2022-12-18T18:19:17.364Z,-6.40
2022-12-18T18:21:46.600Z,-6.30
2022-12-18T18:24:16.410Z,-6.60
2022-12-18T18:26:43.362Z,-6.40
2022-12-18T18:29:14.682Z,-6.20
2022-12-18T18:31:42.092Z,-6.40
2022-12-18T18:34:18.191Z,-6.70
2022-12-18T18:36:46.319Z,-6.70
2022-12-18T18:39:14.901Z,-6.20
2022-12-18T18:41:42.199Z,-6.30
2022-12-18T18:44:14.881Z,-6.50
2022-12-18T18:46:41.732Z,-6.80
2022-12-18T18:49:08.765Z,-6.70
2022-12-18T18:51:35.832Z,-6.50
2022-12-18T18:54:03.054Z,-6.30
2022-12-18T18:59:18.609Z,-6.80
2022-12-18T19:01:45.703Z,-6.40
2022-12-18T19:04:12.970Z,-6.40
2022-12-18T19:06:40.278Z,-6.70
2022-12-18T19:09:08.503Z,-6.80
2022-12-18T19:12:04.848Z,-7.00
2022-12-18T19:14:31.947Z,-6.70
2022-12-18T19:16:58.795Z,-6.60
2022-12-18T19:19:27.157Z,-6.70
2022-12-18T19:21:54.092Z,-6.90
2022-12-18T19:24:22.544Z,-7.00
2022-12-18T19:26:49.545Z,-7.00
2022-12-18T19:29:16.434Z,-6.70
2022-12-18T19:31:43.416Z,-6.70
2022-12-18T19:34:10.517Z,-6.50
2022-12-18T19:36:39.918Z,-6.60
2022-12-18T19:39:18.080Z,-6.50
2022-12-18T19:41:47.022Z,-6.30
2022-12-18T19:44:16.127Z,-6.70
2022-12-18T19:46:44.312Z,-6.60
2022-12-18T19:49:17.370Z,-6.50
2022-12-18T19:51:44.903Z,-6.50
2022-12-18T19:54:16.419Z,-6.40
2022-12-18T19:56:43.910Z,-6.60
2022-12-18T19:59:10.845Z,-6.30
2022-12-18T20:01:37.830Z,-6.50
2022-12-18T20:04:05.680Z,-6.40
2022-12-18T20:06:36.240Z,-6.90
2022-12-18T20:09:06.280Z,-6.80
2022-12-18T20:11:35.361Z,-6.60
2022-12-18T20:14:08.984Z,-6.70
2022-12-18T20:16:36.026Z,-6.60
2022-12-18T20:19:04.550Z,-6.50
2022-12-18T20:21:31.903Z,-6.50
2022-12-18T20:24:00.221Z,-6.80
2022-12-18T20:26:27.641Z,-6.60
2022-12-18T20:28:55.488Z,-6.90
2022-12-18T20:31:23.023Z,-6.80
2022-12-18T20:33:52.063Z,-6.80
2022-12-18T20:36:24.502Z,-6.60
2022-12-18T20:38:57.233Z,-6.40
2022-12-18T20:41:27.695Z,-6.50
2022-12-18T20:44:08.509Z,-6.50
2022-12-18T20:46:50.483Z,-6.50
2022-12-18T20:49:17.450Z,-6.50
2022-12-18T20:51:44.336Z,-6.50
2022-12-18T20:54:12.057Z,-6.30
2022-12-18T20:56:39.058Z,-6.30
2022-12-18T20:59:05.952Z,-6.30
2022-12-18T21:01:33.088Z,-6.80
2022-12-18T21:04:00.777Z,-6.50
2022-12-18T21:06:28.865Z,-6.40
2022-12-18T21:08:55.831Z,-6.30
2022-12-18T21:11:41.340Z,-6.30
2022-12-18T21:14:20.029Z,-6.30
2022-12-18T21:16:47.793Z,-6.40
2022-12-18T21:19:19.551Z,-6.30
2022-12-18T21:21:47.444Z,-6.30
2022-12-18T21:24:14.613Z,-6.60
2022-12-18T21:26:46.131Z,-6.50
2022-12-18T21:29:19.157Z,-6.40
2022-12-18T21:31:46.154Z,-6.30
2022-12-18T21:34:19.587Z,-6.30
2022-12-18T21:36:47.411Z,-6.20
2022-12-18T21:39:15.490Z,-6.20
2022-12-18T21:42:01.155Z,-6.30
2022-12-18T21:44:28.320Z,-6.50
2022-12-18T21:47:01.551Z,-6.30
2022-12-18T21:49:33.580Z,-6.30
2022-12-18T21:52:01.202Z,-6.30
2022-12-18T21:54:29.107Z,-6.30
2022-12-18T21:57:04.516Z,-6.30
2022-12-18T21:59:34.726Z,-6.50
2022-12-18T22:02:04.953Z,-6.40
2022-12-18T22:04:31.947Z,-6.20
2022-12-18T22:07:00.925Z,-6.20
2022-12-18T22:09:28.170Z,-6.30
2022-12-18T22:11:55.055Z,-6.30
2022-12-18T22:14:23.192Z,-6.50
2022-12-18T22:16:54.026Z,-6.40
2022-12-18T22:19:21.625Z,-6.40
2022-12-18T22:21:49.632Z,-6.40
2022-12-18T22:24:17.782Z,-6.50
2022-12-18T22:26:46.636Z,-6.40
2022-12-18T22:29:40.595Z,-6.60
2022-12-18T22:32:10.794Z,-6.40
2022-12-18T22:34:39.547Z,-6.40
2022-12-18T22:37:06.810Z,-6.40
2022-12-18T22:39:33.785Z,-6.50
2022-12-18T22:42:00.644Z,-6.40
2022-12-18T22:44:28.399Z,-6.50
2022-12-18T22:47:06.911Z,-6.50
2022-12-18T22:49:35.606Z,-6.50
2022-12-18T22:52:03.905Z,-6.60
2022-12-18T22:54:31.091Z,-6.70
2022-12-18T22:56:58.172Z,-6.70
2022-12-18T22:59:25.131Z,-6.70
2022-12-18T23:01:57.077Z,-6.80
2022-12-18T23:04:35.924Z,-6.90
2022-12-18T23:07:06.557Z,-6.70
2022-12-18T23:09:33.980Z,-6.60
2022-12-18T23:12:01.267Z,-6.60
2022-12-18T23:14:29.152Z,-6.60
2022-12-18T23:16:56.453Z,-6.70
2022-12-18T23:19:24.034Z,-6.60
2022-12-18T23:21:51.835Z,-6.60
2022-12-18T23:24:21.384Z,-6.50
2022-12-18T23:26:48.265Z,-6.60
2022-12-18T23:29:15.143Z,-6.50
2022-12-18T23:31:42.209Z,-6.50
2022-12-18T23:34:13.104Z,-6.50
2022-12-18T23:36:45.503Z,-6.50
2022-12-18T23:39:15.637Z,-6.50
2022-12-18T23:41:58.236Z,-6.60
2022-12-18T23:44:25.308Z,-6.60
2022-12-18T23:46:52.878Z,-6.70
2022-12-18T23:49:19.901Z,-6.80
2022-12-18T23:51:46.821Z,-6.80
2022-12-18T23:54:13.682Z,-6.90
2022-12-18T23:56:40.915Z,-7.30
2022-12-18T23:59:08.012Z,-7.20
